createdAt,value
2017-06-20T12:12:36.165Z,64.4
2017-06-20T12:12:53.445Z,65.1
2017-06-20T12:13:55.109Z,64
2017-06-20T12:14:56.754Z,62.8
2017-06-20T12:15:58.398Z,62.3
2017-06-20T12:17:00.362Z,62.2
2017-06-20T12:17:41.099Z,61.9
2017-06-20T12:17:49.045Z,61.9
2017-06-20T12:18:50.702Z,61.8
2017-06-20T12:19:52.334Z,61.9
2017-06-20T12:20:53.957Z,62
2017-06-20T12:21:55.572Z,62
2017-06-20T12:22:57.610Z,62
2017-06-20T12:23:59.233Z,62.2
2017-06-20T12:25:01.547Z,62
2017-06-20T12:26:03.162Z,61.9
2017-06-20T12:27:04.790Z,62.2
2017-06-20T12:28:06.414Z,62.2
2017-06-20T12:29:08.147Z,62
2017-06-20T12:29:55.712Z,62
2017-06-20T12:30:04.616Z,61.7
2017-06-20T12:30:26.505Z,61.7
2017-06-20T12:30:49.993Z,61.7
2017-06-20T13:00:06.276Z,61.8
2017-06-20T13:00:12.324Z,60.1
2017-06-20T13:01:14.444Z,60.3
2017-06-20T13:02:16.866Z,60.2
2017-06-20T13:03:18.872Z,60.2
2017-06-20T13:04:20.879Z,60.3
2017-06-20T13:05:17.710Z,60.1
2017-06-20T13:06:19.727Z,60.1
2017-06-20T13:06:43.457Z,60.1
2017-06-20T13:07:45.603Z,60.2
2017-06-20T13:07:56.370Z,60
2017-06-20T13:08:58.753Z,60
2017-06-20T13:10:00.759Z,60
2017-06-20T13:11:02.804Z,60
2017-06-20T13:23:22.149Z,60.1
2017-06-20T13:24:17.889Z,60
2017-06-20T13:25:19.939Z,60
2017-06-20T13:26:22.033Z,59.9
2017-06-20T13:27:24.050Z,59.9
2017-06-20T13:28:26.094Z,59.8
2017-06-20T13:29:28.237Z,59.9
2017-06-20T13:30:30.251Z,59.7
2017-06-20T13:31:32.709Z,59.9
2017-06-20T13:32:34.748Z,59.6
2017-06-20T13:33:36.750Z,59.8
2017-06-20T13:40:49.739Z,59.8
2017-06-20T13:40:55.919Z,59.6
2017-06-20T13:41:58.487Z,59.7
2017-06-20T13:43:00.975Z,59.6
2017-06-20T13:44:02.984Z,59.6
2017-06-20T13:44:18.043Z,59.8
2017-06-20T13:45:20.075Z,59.7
2017-06-20T13:46:22.086Z,59.6
2017-06-20T13:47:24.130Z,59.5
2017-06-20T13:48:26.141Z,59.6
2017-06-20T13:49:28.168Z,59.5
2017-06-20T13:50:30.697Z,59.5
2017-06-20T13:51:33.098Z,59.4
2017-06-20T13:52:35.124Z,59.5
2017-06-20T13:53:37.123Z,59.4
2017-06-20T13:54:39.169Z,59.4
2017-06-20T13:55:41.195Z,59.4
2017-06-20T13:56:43.279Z,59.3
2017-06-20T13:57:45.675Z,59.3
2017-06-20T13:58:47.778Z,59.3
2017-06-20T13:59:49.878Z,59.3
2017-06-20T14:00:51.891Z,59.2
2017-06-20T14:01:53.892Z,59.2
2017-06-20T14:02:55.917Z,59.3
2017-06-20T14:03:03.460Z,59.3
2017-06-20T14:03:55.368Z,59.2
2017-06-20T14:04:57.393Z,59.2
2017-06-20T14:05:59.403Z,59.2
2017-06-20T14:07:01.416Z,59.2
2017-06-20T14:08:03.478Z,59.2
2017-06-20T14:09:05.509Z,59
2017-06-20T14:10:07.539Z,59.1
2017-06-20T14:11:09.677Z,59.2
2017-06-20T14:12:11.714Z,59.2
2017-06-20T14:13:14.234Z,59.1
2017-06-20T14:14:16.252Z,59.1
2017-06-20T14:15:18.267Z,59.1
2017-06-20T14:16:20.295Z,59.1
2017-06-20T14:17:22.334Z,59.1
2017-06-20T14:18:24.350Z,59
2017-06-20T14:19:26.392Z,58.9
2017-06-20T14:20:28.740Z,59
2017-06-20T14:21:31.099Z,59
2017-06-20T14:22:33.463Z,58.8
2017-06-20T14:23:35.822Z,58.9
2017-06-20T14:24:37.839Z,58.8
2017-06-20T14:25:39.867Z,58.8
2017-06-20T14:26:41.918Z,58.8
2017-06-20T14:27:43.951Z,58.8
2017-06-20T14:28:45.951Z,58.5
2017-06-20T14:29:48.429Z,58.8
2017-06-20T14:30:50.462Z,58.4
2017-06-20T14:31:52.464Z,58.6
2017-06-20T14:32:54.484Z,58.3
2017-06-20T14:33:56.505Z,58.8
2017-06-20T14:34:58.544Z,58.7
2017-06-20T14:36:00.548Z,58.8
2017-06-20T14:37:02.575Z,58.7
2017-06-20T14:38:05.424Z,58.3
2017-06-20T14:39:07.455Z,58.6
2017-06-20T14:40:09.455Z,58.3
2017-06-20T14:41:11.480Z,58.7
2017-06-20T14:42:13.488Z,58.3
2017-06-20T14:43:15.525Z,58.4
2017-06-20T14:44:17.539Z,58.3
2017-06-20T16:24:16.760Z,62.6
2017-06-20T16:25:02.759Z,64.3
2017-06-20T16:25:21.986Z,64.1
2017-06-20T16:26:24.003Z,66.7
2017-06-20T16:27:26.055Z,64
2017-06-20T16:28:29.056Z,63.5
2017-06-20T16:29:31.895Z,62.9
2017-06-20T16:30:33.921Z,63.1
2017-06-20T16:31:19.930Z,63
2017-06-20T16:31:25.423Z,62.7
2017-06-20T16:32:27.464Z,62.6
2017-06-20T16:33:29.509Z,62.4
2017-06-20T16:34:06.816Z,62
2017-06-20T16:34:24.849Z,61.7
2017-06-20T16:35:26.902Z,61.2
2017-06-20T16:36:28.936Z,60.9
2017-06-20T16:37:30.971Z,60.7
2017-06-20T16:38:33.347Z,60.4
2017-06-20T16:39:31.197Z,60.1
2017-06-20T16:40:33.578Z,59.9
2017-06-20T16:40:50.916Z,59.3
2017-06-20T16:41:14.684Z,59.4
2017-06-20T16:42:16.818Z,59.1
2017-06-20T16:43:19.372Z,58.7
2017-06-20T16:44:21.417Z,58.4
2017-06-20T16:45:23.448Z,58.2
2017-06-20T16:46:25.493Z,57.7
2017-06-20T16:47:27.529Z,57.3
2017-06-20T16:48:29.572Z,57.1
2017-06-20T21:38:34.481Z,56.8
2017-06-20T21:38:54.417Z,44.6
2017-06-20T21:39:57.098Z,44.6
2017-06-20T21:40:59.197Z,45
2017-06-20T21:42:01.301Z,45.2
2017-06-20T21:43:03.392Z,45.5
2017-06-20T21:44:05.497Z,45.6
2017-06-20T21:45:07.585Z,45.9
2017-06-20T21:45:36.285Z,46
2017-06-20T21:45:59.334Z,45.9
2017-06-20T21:46:24.856Z,45.9
2017-06-20T21:47:30.824Z,46.1
2017-06-20T21:48:18.223Z,46.1
2017-06-20T21:48:52.740Z,46.2
2017-06-20T21:49:54.798Z,46.3
2017-06-20T21:50:50.993Z,46.3
2017-06-20T21:50:58.500Z,46.4
2017-06-20T21:52:00.551Z,46.4
2017-06-20T21:53:07.949Z,46.4
2017-06-20T21:54:03.965Z,46.3
2017-06-20T21:54:23.903Z,46.3
2017-06-20T21:55:25.959Z,46.3
2017-06-20T21:55:51.649Z,46.5
2017-06-20T21:56:57.976Z,46.4
2017-06-20T21:58:06.566Z,46.3
2017-06-20T21:59:08.700Z,46.3
2017-06-20T22:00:10.768Z,46.4
2017-06-20T22:01:12.841Z,46.4
2017-06-20T22:02:15.241Z,46.1
2017-06-20T22:03:18.789Z,46
2017-06-20T22:04:23.769Z,46
2017-06-20T22:05:30.776Z,46
2017-06-20T22:06:34.983Z,45.9
2017-06-20T22:07:38.421Z,46.4
2017-06-20T22:08:40.466Z,46.5
2017-06-20T22:09:43.210Z,46.4
2017-06-20T22:10:45.253Z,46.5
2017-06-20T22:11:47.319Z,46.4
2017-06-20T22:12:49.827Z,46.4
2017-06-20T22:13:51.868Z,46.3
2017-06-20T22:14:54.267Z,46.4
2017-06-20T22:15:56.520Z,46.4
2017-06-20T22:16:58.933Z,46.4
2017-06-20T22:18:00.983Z,46.4
2017-06-20T22:19:03.060Z,46.3
2017-06-20T22:20:05.149Z,46.4
2017-06-20T22:21:07.227Z,46.3
2017-06-20T22:22:09.277Z,46.2
2017-06-20T22:23:11.790Z,46.2
2017-06-20T22:24:13.847Z,46.2
2017-06-20T22:25:15.894Z,46.1
2017-06-20T22:26:17.954Z,46.1
2017-06-20T22:27:20.007Z,46
2017-06-20T22:28:22.065Z,46.1
2017-06-20T22:29:24.136Z,46
2017-06-20T22:30:26.195Z,46
2017-06-20T22:31:28.246Z,46
2017-06-20T22:32:30.509Z,46.1
2017-06-20T22:33:32.578Z,46.1
2017-06-20T22:34:34.632Z,46.2
2017-06-20T22:35:36.702Z,46.1
2017-06-20T22:36:38.811Z,46.1
2017-06-20T22:37:41.050Z,46.2
2017-06-20T22:38:43.448Z,46
2017-06-20T22:39:45.492Z,45.9
2017-06-20T22:40:47.561Z,45.6
2017-06-20T22:41:49.612Z,45.9
2017-06-20T22:42:51.649Z,45.9
2017-06-20T22:43:53.739Z,45.7
2017-06-20T22:44:55.785Z,45.6
2017-06-20T22:45:57.834Z,45.6
2017-06-20T22:46:59.924Z,45.5
2017-06-20T22:48:01.961Z,45.6
2017-06-20T22:49:04.024Z,45.6
2017-06-20T22:50:06.087Z,45.5
2017-06-20T22:51:08.176Z,45.3
2017-06-20T22:52:10.528Z,45.4
2017-06-20T22:53:12.779Z,45.5
2017-06-20T22:54:15.225Z,45.6
2017-06-20T22:55:17.282Z,45.6
2017-06-20T22:56:19.337Z,45.5
2017-06-20T22:57:21.408Z,45.5
2017-06-20T22:58:23.451Z,45.3
2017-06-20T22:59:25.499Z,45.2
2017-06-20T23:00:27.904Z,45.2
2017-06-20T23:01:29.965Z,45
2017-06-20T23:02:32.123Z,44.9
2017-06-20T23:03:34.381Z,44.9
2017-06-20T23:04:36.437Z,44.9
2017-06-20T23:05:38.493Z,44.9
2017-06-20T23:06:40.554Z,44.8
2017-06-20T23:07:42.943Z,44.8
2017-06-20T23:08:44.999Z,44.8
2017-06-20T23:09:47.047Z,44.8
2017-06-20T23:10:49.115Z,44.8
2017-06-20T23:11:51.161Z,44.8
2017-06-20T23:12:53.398Z,44.8
2017-06-20T23:13:55.454Z,44.8
2017-06-20T23:14:57.842Z,44.8
2017-06-20T23:15:59.892Z,44.8
2017-06-20T23:17:01.930Z,44.7
2017-06-20T23:18:03.965Z,44.8
2017-06-20T23:19:06.011Z,44.8
2017-06-20T23:20:08.419Z,44.8
2017-06-20T23:21:10.453Z,44.9
2017-06-20T23:22:13.030Z,44.9
2017-06-20T23:23:15.447Z,44.9
2017-06-20T23:24:17.492Z,44.9
2017-06-20T23:25:20.082Z,44.9
2017-06-20T23:26:22.131Z,44.9
2017-06-20T23:27:24.756Z,44.9
2017-06-20T23:28:26.804Z,45
2017-06-20T23:29:28.829Z,45.2
2017-06-20T23:30:30.881Z,45.2
2017-06-20T23:31:33.292Z,45.2
2017-06-20T23:32:35.343Z,45.2
2017-06-20T23:33:37.392Z,45.2
2017-06-20T23:34:39.442Z,45.2
2017-06-20T23:35:41.574Z,45.3
2017-06-20T23:36:43.949Z,45.3
2017-06-20T23:37:46.000Z,45.2
2017-06-20T23:38:48.039Z,45.3
2017-06-20T23:39:50.429Z,45.3
2017-06-20T23:40:52.459Z,45.4
2017-06-20T23:41:54.660Z,45.4
2017-06-20T23:42:56.693Z,45.3
2017-06-20T23:43:59.273Z,45.4
2017-06-20T23:45:01.331Z,45.3
2017-06-20T23:46:03.428Z,45.4
2017-06-20T23:47:05.485Z,45.5
2017-06-20T23:48:07.541Z,45.6
2017-06-20T23:49:09.598Z,45.6
2017-06-20T23:50:11.986Z,45.6
2017-06-20T23:51:14.043Z,45.6
2017-06-20T23:52:16.112Z,45.6
2017-06-20T23:53:18.156Z,45.6
2017-06-20T23:54:20.543Z,45.7
2017-06-20T23:55:22.609Z,45.6
2017-06-20T23:56:24.664Z,45.7
2017-06-20T23:57:26.719Z,45.7
2017-06-20T23:58:28.934Z,45.9
2017-06-20T23:59:31.211Z,45.8
